Terminal Aerodrome Forecast
Issued by NWS Mt. Holly, NJ

Home | Current Version | Previous Version | Text Only | Print | Product List | Glossary On
Versions: 1 2 3 4 5 6 7 8 9 10 11 12 13 14 15 16 17 18 19 20 21 22 23 24 25 26
000
FTAK31 PANC 232320
TAFABE
TAF
PABE 232320Z 2400/2424 21010KT P6SM BKN020 OVC040
     FM241200 23006KT P6SM VCFG FEW006 BKN020 OVC040
     FM241800 25008KT P6SM VCSH SCT020 BKN040=

USA.gov is the U.S. government's official web portal to all federal, state and local government web resources and services.